Time;durP1;ratioP1;P1;durP2;ratioP2;P2;SDS_P1;SDS_P2;PMS_P1;PMS_P2;Temp;Humidity;BMP_temperature;BMP_pressure;BME280_temperature;BME280_humidity;BME280_pressure;Samples;Min_cycle;Max_cycle;Signal;HPM_P1;HPM_P2
2022/01/16 00:05:55;;;;;;;31.80;13.05;;;6.10;62.00;;;;;;6337956;28;20484;-79
2022/01/16 00:08:56;;;;;;;30.10;11.85;;;6.20;62.00;;;;;;6305089;28;20060;-81
2022/01/16 00:12:00;;;;;;;36.22;11.45;;;6.20;62.10;;;;;;6289361;28;20036;-79
2022/01/16 00:15:04;;;;;;;26.85;11.63;;;6.10;62.00;;;;;;6325443;28;20650;-80
2022/01/16 00:21:06;;;;;;;26.52;12.02;;;6.10;62.00;;;;;;6323489;28;20028;-79
2022/01/16 00:24:08;;;;;;;27.42;11.27;;;6.20;62.00;;;;;;6322562;28;20127;-79
2022/01/16 00:27:09;;;;;;;34.92;12.48;;;6.20;62.00;;;;;;6322390;28;20516;-81
2022/01/16 00:30:11;;;;;;;26.90;12.25;;;6.20;62.00;;;;;;6322677;28;20513;-81
2022/01/16 00:33:13;;;;;;;27.98;11.13;;;6.20;61.90;;;;;;6301681;28;20024;-81
2022/01/16 00:36:17;;;;;;;27.38;12.75;;;6.20;61.90;;;;;;6299767;28;20052;-80
2022/01/16 00:39:19;;;;;;;33.08;14.02;;;6.20;61.90;;;;;;6299000;28;20103;-80
2022/01/16 00:42:21;;;;;;;30.52;14.05;;;6.20;61.90;;;;;;6321794;28;20028;-81
2022/01/16 00:45:24;;;;;;;32.13;13.15;;;6.20;61.90;;;;;;6296653;28;20032;-81
2022/01/16 00:48:25;;;;;;;36.22;13.13;;;6.20;61.80;;;;;;6303620;28;20089;-80
2022/01/16 00:51:27;;;;;;;32.55;12.82;;;6.20;61.80;;;;;;6303384;28;20080;-79
2022/01/16 00:54:28;;;;;;;25.10;11.00;;;6.10;61.80;;;;;;6318988;28;20024;-79
2022/01/16 00:57:30;;;;;;;31.02;12.45;;;6.10;61.80;;;;;;6286089;28;20207;-79
2022/01/16 01:00:32;;;;;;;33.30;12.48;;;6.00;61.80;;;;;;6302584;28;20032;-80
2022/01/16 01:03:33;;;;;;;30.15;11.30;;;6.00;61.90;;;;;;6319883;28;20486;-81
2022/01/16 01:06:34;;;;;;;31.67;14.18;;;6.00;62.00;;;;;;6302196;28;20024;-81
2022/01/16 01:09:36;;;;;;;32.05;11.93;;;6.00;62.00;;;;;;6300754;28;20036;-81
2022/01/16 01:12:52;;;;;;;34.10;13.63;;;5.90;62.10;;;;;;6302544;28;20031;-79
2022/01/16 01:15:59;;;;;;;27.08;12.55;;;5.90;62.20;;;;;;6320049;28;20035;-79
2022/01/16 01:19:01;;;;;;;37.15;13.38;;;5.90;62.50;;;;;;6319861;28;20024;-80
2022/01/16 01:22:06;;;;;;;28.70;12.07;;;5.90;62.60;;;;;;6300603;28;20406;-81
2022/01/16 01:25:27;;;;;;;35.22;15.20;;;5.90;62.60;;;;;;6266486;28;20129;-79
2022/01/16 01:28:29;;;;;;;33.72;12.77;;;5.90;62.60;;;;;;6233731;28;20045;-79
2022/01/16 01:31:30;;;;;;;24.17;11.27;;;6.00;62.60;;;;;;6267580;28;20422;-79
2022/01/16 01:34:32;;;;;;;25.70;11.60;;;6.00;62.50;;;;;;6257342;28;20039;-80
2022/01/16 01:37:33;;;;;;;30.95;11.98;;;6.00;62.50;;;;;;6280531;28;20041;-79
2022/01/16 01:40:36;;;;;;;27.50;12.52;;;5.90;62.40;;;;;;6277676;28;20038;-79
2022/01/16 01:53:17;;;;;;;27.30;12.15;;;5.70;62.80;;;;;;6266807;28;20124;-79
2022/01/16 01:56:23;;;;;;;23.88;11.30;;;5.70;63.00;;;;;;6279106;28;20040;-79
2022/01/16 01:59:24;;;;;;;24.48;10.10;;;5.70;63.10;;;;;;6319034;28;20020;-80
2022/01/16 02:02:29;;;;;;;23.55;10.15;;;5.70;63.10;;;;;;6318294;28;20087;-80
2022/01/16 02:05:31;;;;;;;26.45;10.73;;;5.70;63.10;;;;;;6294219;28;20031;-80
2022/01/16 02:08:35;;;;;;;24.80;10.90;;;5.60;63.00;;;;;;6318128;28;20115;-80
2022/01/16 02:11:37;;;;;;;20.80;10.52;;;5.60;63.10;;;;;;6300576;28;20016;-79
2022/01/16 02:14:55;;;;;;;25.17;11.18;;;5.50;63.20;;;;;;6318918;28;20043;-80
2022/01/16 02:31:17;;;;;;;29.15;9.70;;;5.30;63.90;;;;;;6298138;28;20059;-80
2022/01/16 02:37:33;;;;;;;24.90;10.90;;;5.30;64.10;;;;;;6317815;28;20024;-79
2022/01/16 02:40:36;;;;;;;30.73;10.90;;;5.20;64.10;;;;;;6317934;28;20028;-79
2022/01/16 02:43:44;;;;;;;21.80;10.13;;;5.20;64.10;;;;;;6296203;28;20458;-80
2022/01/16 02:46:46;;;;;;;23.63;10.20;;;5.20;64.20;;;;;;6313129;28;20045;-79
2022/01/16 02:49:48;;;;;;;19.27;9.70;;;5.20;64.20;;;;;;6300055;28;20039;-79
2022/01/16 02:52:50;;;;;;;25.77;10.05;;;5.20;64.40;;;;;;6314346;28;20092;-80
2022/01/16 02:55:51;;;;;;;29.50;10.00;;;5.20;64.40;;;;;;6325291;28;20035;-78
2022/01/16 02:58:52;;;;;;;22.13;11.57;;;5.20;64.40;;;;;;6292816;28;20543;-79
2022/01/16 03:01:54;;;;;;;26.85;9.30;;;5.20;64.50;;;;;;6308957;28;20047;-80
2022/01/16 03:04:55;;;;;;;32.78;11.25;;;5.20;64.50;;;;;;6326701;28;20032;-79
2022/01/16 03:07:56;;;;;;;16.55;8.25;;;5.20;64.60;;;;;;6303577;28;20028;-81
2022/01/16 03:13:58;;;;;;;25.85;10.13;;;5.10;64.70;;;;;;6307719;28;20047;-80
2022/01/16 03:17:00;;;;;;;29.35;10.57;;;5.10;64.70;;;;;;6308541;28;20032;-80
2022/01/16 03:23:24;;;;;;;21.10;9.68;;;5.10;64.80;;;;;;6307476;28;20047;-79
2022/01/16 03:26:26;;;;;;;23.63;10.45;;;5.10;64.80;;;;;;6308094;28;20173;-79
2022/01/16 03:29:28;;;;;;;20.20;8.95;;;5.10;64.90;;;;;;6325739;28;20020;-79
2022/01/16 03:32:29;;;;;;;29.02;10.65;;;5.10;64.90;;;;;;6325705;28;20056;-79
2022/01/16 03:35:31;;;;;;;25.90;10.02;;;5.10;65.00;;;;;;6323929;28;20525;-79
2022/01/16 03:38:32;;;;;;;28.00;12.05;;;5.10;65.00;;;;;;6301341;28;20165;-80
2022/01/16 03:41:34;;;;;;;24.23;10.55;;;5.10;65.10;;;;;;6325340;28;20081;-80
2022/01/16 03:44:35;;;;;;;29.20;9.27;;;5.10;65.10;;;;;;6308922;28;20032;-80
2022/01/16 03:47:37;;;;;;;23.40;10.02;;;5.00;65.10;;;;;;6309172;28;20035;-81
2022/01/16 03:50:38;;;;;;;26.88;10.20;;;5.00;65.20;;;;;;6324387;28;20159;-82
2022/01/16 03:53:40;;;;;;;23.13;10.35;;;5.00;65.10;;;;;;6307501;28;20024;-81
2022/01/16 03:56:41;;;;;;;23.23;9.05;;;5.00;65.20;;;;;;6308085;28;20028;-80
2022/01/16 03:59:42;;;;;;;28.98;9.50;;;4.90;65.20;;;;;;6291378;28;20032;-81
2022/01/16 04:02:43;;;;;;;19.98;9.27;;;4.90;65.30;;;;;;6289794;28;20052;-80
2022/01/16 04:05:44;;;;;;;19.30;9.40;;;4.90;65.30;;;;;;6304382;28;20040;-81
2022/01/16 04:08:50;;;;;;;22.10;8.50;;;4.90;65.50;;;;;;6320377;28;20024;-81
2022/01/16 04:11:54;;;;;;;20.50;9.48;;;4.90;65.60;;;;;;6321763;28;20039;-81
2022/01/16 04:17:56;;;;;;;18.67;9.40;;;4.90;65.60;;;;;;6288842;28;20032;-83
2022/01/16 04:20:58;;;;;;;19.70;8.73;;;4.90;65.60;;;;;;6306975;28;20036;-80
2022/01/16 04:23:59;;;;;;;22.45;8.73;;;4.90;65.60;;;;;;6280688;28;20052;-80
2022/01/16 04:27:01;;;;;;;19.17;8.48;;;4.90;66.40;;;;;;6296830;28;20036;-78
2022/01/16 04:30:03;;;;;;;29.48;9.95;;;4.90;65.60;;;;;;6296405;28;20031;-79
2022/01/16 04:33:05;;;;;;;20.52;9.15;;;5.00;65.60;;;;;;6294764;28;20025;-79
2022/01/16 04:36:08;;;;;;;20.60;8.45;;;5.00;65.40;;;;;;6304431;28;20047;-79
2022/01/16 04:39:17;;;;;;;21.25;9.57;;;5.00;65.30;;;;;;6291009;28;20400;-81
2022/01/16 04:45:38;;;;;;;24.50;9.30;;;5.00;65.20;;;;;;6295997;28;20109;-79
2022/01/16 04:48:39;;;;;;;15.88;8.45;;;4.90;65.20;;;;;;6294738;28;20085;-79
2022/01/16 04:51:40;;;;;;;19.52;8.80;;;5.00;65.20;;;;;;6288733;28;20575;-79
2022/01/16 04:54:42;;;;;;;24.58;10.23;;;5.00;65.20;;;;;;6278634;28;20025;-81
2022/01/16 04:57:44;;;;;;;22.77;8.45;;;4.90;65.10;;;;;;6287913;28;20509;-80
2022/01/16 05:00:45;;;;;;;19.63;8.80;;;5.00;65.20;;;;;;6277271;28;20108;-80
2022/01/16 05:03:46;;;;;;;21.30;9.43;;;5.00;65.10;;;;;;6295058;28;20021;-80
2022/01/16 05:06:48;;;;;;;18.73;9.10;;;5.10;65.10;;;;;;6276839;28;20453;-80
2022/01/16 05:09:50;;;;;;;20.58;8.68;;;5.10;65.00;;;;;;6294216;28;20400;-80
2022/01/16 05:12:53;;;;;;;22.73;9.25;;;5.10;65.00;;;;;;6294870;28;20025;-80
2022/01/16 05:19:15;;;;;;;16.20;8.25;;;5.00;64.90;;;;;;6300890;28;20146;-79
2022/01/16 05:22:16;;;;;;;22.65;9.00;;;5.00;64.80;;;;;;6306276;28;20140;-78
2022/01/16 05:25:18;;;;;;;23.58;9.52;;;5.00;64.90;;;;;;6327286;28;20040;-79
2022/01/16 05:28:21;;;;;;;21.33;8.50;;;5.10;65.80;;;;;;6302110;28;20136;-79
2022/01/16 05:31:24;;;;;;;25.90;8.77;;;4.90;64.90;;;;;;6301860;28;20616;-81
2022/01/16 05:34:26;;;;;;;17.48;8.18;;;4.90;65.00;;;;;;6319352;28;20091;-80
2022/01/16 05:37:27;;;;;;;18.33;9.00;;;4.90;64.90;;;;;;6319871;28;20032;-80
2022/01/16 05:40:29;;;;;;;20.35;9.70;;;5.00;64.90;;;;;;6304520;28;20253;-80
2022/01/16 05:43:30;;;;;;;21.80;9.48;;;4.90;64.80;;;;;;6347089;28;20023;-79
2022/01/16 05:46:31;;;;;;;23.63;9.20;;;5.00;64.80;;;;;;6334140;28;20070;-79
2022/01/16 05:49:32;;;;;;;23.73;8.70;;;4.90;64.60;;;;;;6323144;28;20036;-80
2022/01/16 05:52:33;;;;;;;17.30;8.02;;;4.80;64.70;;;;;;6311393;28;20391;-80
2022/01/16 05:55:37;;;;;;;23.17;9.30;;;4.80;64.90;;;;;;6303387;28;20052;-80
2022/01/16 05:58:41;;;;;;;36.05;8.93;;;4.80;65.00;;;;;;6286327;28;20036;-79
2022/01/16 06:01:42;;;;;;;19.63;8.70;;;4.70;64.90;;;;;;6302752;28;20491;-79
2022/01/16 06:04:43;;;;;;;26.25;8.82;;;4.70;65.00;;;;;;6303180;28;20156;-79
2022/01/16 06:07:50;;;;;;;21.63;9.65;;;4.70;65.10;;;;;;6320437;28;20039;-80
2022/01/16 06:10:51;;;;;;;20.83;8.85;;;4.60;65.00;;;;;;6319728;28;20483;-79
2022/01/16 06:13:52;;;;;;;28.38;11.30;;;4.60;65.00;;;;;;6283990;28;20633;-79
2022/01/16 06:16:53;;;;;;;30.15;10.75;;;4.60;65.00;;;;;;6284079;28;20030;-79
2022/01/16 06:19:55;;;;;;;23.23;9.95;;;4.50;65.10;;;;;;6312192;28;20071;-79
2022/01/16 06:22:56;;;;;;;27.27;10.45;;;4.40;65.10;;;;;;6315957;28;20429;-79
2022/01/16 06:25:57;;;;;;;25.45;10.80;;;4.40;65.40;;;;;;6284762;28;20036;-79
2022/01/16 06:28:59;;;;;;;21.63;9.27;;;4.40;65.50;;;;;;6301806;28;20078;-80
2022/01/16 06:32:01;;;;;;;22.30;9.85;;;4.30;65.30;;;;;;6297434;28;20089;-80
2022/01/16 06:35:06;;;;;;;24.98;10.10;;;4.40;65.40;;;;;;6300102;28;20028;-80
2022/01/16 06:38:07;;;;;;;18.83;9.10;;;4.30;65.40;;;;;;6317338;28;20630;-79
2022/01/16 06:41:10;;;;;;;27.20;10.65;;;4.30;65.50;;;;;;6283966;28;20326;-79
2022/01/16 06:44:11;;;;;;;29.05;10.02;;;4.30;65.50;;;;;;6301125;28;20028;-79
2022/01/16 06:47:13;;;;;;;21.73;8.88;;;4.30;65.50;;;;;;6317051;28;20028;-80
2022/01/16 06:50:14;;;;;;;24.17;10.57;;;4.20;65.50;;;;;;6299340;28;20074;-79
2022/01/16 06:53:15;;;;;;;23.13;9.32;;;4.20;65.40;;;;;;6297326;28;20126;-79
2022/01/16 06:56:17;;;;;;;23.27;8.82;;;4.20;66.30;;;;;;6300363;28;20020;-79
2022/01/16 06:59:18;;;;;;;22.33;11.23;;;4.20;65.40;;;;;;6284052;28;20032;-80
2022/01/16 07:02:19;;;;;;;22.58;10.50;;;4.20;65.30;;;;;;6299888;28;20111;-79
2022/01/16 07:05:20;;;;;;;31.60;11.50;;;4.20;65.40;;;;;;6295800;28;20024;-79
2022/01/16 07:08:25;;;;;;;29.70;11.15;;;4.20;65.40;;;;;;6307320;28;20119;-80
2022/01/16 07:11:26;;;;;;;28.55;11.70;;;4.20;65.40;;;;;;6283332;28;20028;-80
2022/01/16 07:14:27;;;;;;;32.88;9.88;;;4.10;65.40;;;;;;6299694;28;20024;-79
2022/01/16 07:17:28;;;;;;;21.58;9.63;;;4.10;65.50;;;;;;6317543;28;20024;-79
2022/01/16 07:20:29;;;;;;;20.95;9.05;;;4.10;65.50;;;;;;6294906;28;20356;-80
2022/01/16 07:23:30;;;;;;;24.75;9.50;;;4.00;65.50;;;;;;6291249;28;20052;-79
2022/01/16 07:26:31;;;;;;;24.55;9.73;;;4.10;65.70;;;;;;6291321;28;20127;-81
2022/01/16 07:29:33;;;;;;;31.90;12.27;;;4.10;65.70;;;;;;6291605;28;20457;-80
2022/01/16 07:32:34;;;;;;;24.65;9.32;;;4.10;65.70;;;;;;6291506;28;20071;-80
2022/01/16 07:35:37;;;;;;;19.15;9.30;;;4.10;65.70;;;;;;6291319;28;20032;-80
2022/01/16 07:38:38;;;;;;;23.40;9.52;;;4.10;65.60;;;;;;6287637;28;20139;-79
2022/01/16 07:41:39;;;;;;;24.17;9.98;;;4.10;65.60;;;;;;6295533;28;20032;-79
2022/01/16 07:44:40;;;;;;;26.45;10.13;;;4.10;65.60;;;;;;6295884;28;20449;-79
2022/01/16 07:47:42;;;;;;;25.85;10.52;;;4.10;65.70;;;;;;6295815;28;20040;-78
2022/01/16 07:50:44;;;;;;;22.40;9.77;;;4.10;65.70;;;;;;6296840;28;20032;-81
2022/01/16 07:53:45;;;;;;;23.52;9.70;;;4.10;65.70;;;;;;6296163;28;20039;-79
2022/01/16 07:56:46;;;;;;;22.15;9.90;;;4.10;65.70;;;;;;6297490;28;20031;-80
2022/01/16 07:59:47;;;;;;;26.88;10.60;;;4.20;65.80;;;;;;6296882;28;20048;-78
2022/01/16 08:02:50;;;;;;;25.15;11.85;;;4.30;65.80;;;;;;6296821;28;20033;-80
2022/01/16 08:05:51;;;;;;;24.10;11.68;;;4.30;65.80;;;;;;6300605;28;20111;-79
2022/01/16 08:08:52;;;;;;;27.00;9.98;;;4.40;65.70;;;;;;6297351;28;20038;-79
2022/01/16 08:11:53;;;;;;;28.80;11.98;;;4.40;65.40;;;;;;6297388;28;20384;-81
2022/01/16 08:14:54;;;;;;;29.30;10.65;;;4.50;65.40;;;;;;6299206;28;20024;-80
2022/01/16 08:17:56;;;;;;;45.58;11.45;;;4.60;65.40;;;;;;6292502;28;20044;-82
2022/01/16 08:20:57;;;;;;;23.60;11.63;;;4.60;65.20;;;;;;6289812;28;20029;-81
2022/01/16 08:23:58;;;;;;;32.60;10.35;;;4.70;65.10;;;;;;6283193;28;20036;-80
2022/01/16 08:26:59;;;;;;;21.25;10.20;;;4.70;65.00;;;;;;6269367;28;20068;-80
2022/01/16 08:30:00;;;;;;;25.60;11.55;;;4.80;65.00;;;;;;6281692;28;20024;-82
2022/01/16 08:33:02;;;;;;;37.92;10.32;;;4.90;64.80;;;;;;6276157;28;20129;-82
2022/01/16 08:36:03;;;;;;;28.25;9.95;;;5.00;64.50;;;;;;6269867;28;20075;-82
2022/01/16 08:39:05;;;;;;;34.63;12.18;;;5.00;64.20;;;;;;6286997;28;20032;-82
2022/01/16 08:42:06;;;;;;;19.35;9.05;;;5.10;64.10;;;;;;6277463;28;20021;-82
2022/01/16 08:45:09;;;;;;;25.48;12.50;;;5.10;64.00;;;;;;6284812;28;20464;-82
2022/01/16 08:48:10;;;;;;;20.08;9.30;;;5.10;63.80;;;;;;6275368;28;20036;-81
2022/01/16 08:51:11;;;;;;;25.95;10.63;;;5.10;63.80;;;;;;6294302;28;20039;-82
2022/01/16 08:54:12;;;;;;;25.35;10.82;;;5.10;63.50;;;;;;6249566;28;20094;-80
2022/01/16 08:57:13;;;;;;;23.25;11.40;;;5.10;63.10;;;;;;6293755;28;20033;-82
2022/01/16 09:00:15;;;;;;;21.17;10.77;;;5.00;62.80;;;;;;6288449;28;20066;-81
2022/01/16 09:03:21;;;;;;;20.38;10.20;;;5.00;62.70;;;;;;6291045;28;20037;-79
2022/01/16 09:06:22;;;;;;;28.63;10.52;;;4.90;62.20;;;;;;6286834;28;20028;-81
2022/01/16 09:09:23;;;;;;;25.48;11.40;;;4.80;61.90;;;;;;6288746;28;20560;-84
2022/01/16 09:12:24;;;;;;;24.55;10.20;;;4.70;62.00;;;;;;6294799;28;20142;-83
2022/01/16 09:15:27;;;;;;;31.35;10.90;;;4.60;62.40;;;;;;6293873;28;20028;-83
2022/01/16 09:18:28;;;;;;;34.47;12.60;;;4.60;62.60;;;;;;6291956;28;20063;-85
2022/01/16 09:21:29;;;;;;;23.58;11.02;;;4.60;62.70;;;;;;6294041;28;20056;-83
2022/01/16 09:24:31;;;;;;;27.85;12.15;;;4.70;62.80;;;;;;6305752;28;20051;-84
2022/01/16 09:27:33;;;;;;;24.55;11.00;;;4.70;62.90;;;;;;6297184;28;20100;-83
2022/01/16 09:30:36;;;;;;;21.85;10.50;;;4.80;63.00;;;;;;6319122;28;20046;-83
2022/01/16 09:33:37;;;;;;;26.35;10.55;;;4.80;62.90;;;;;;6319658;28;20024;-83
2022/01/16 09:36:40;;;;;;;27.92;11.02;;;4.90;63.10;;;;;;6319397;28;20374;-82
2022/01/16 09:39:41;;;;;;;23.75;10.90;;;5.00;63.10;;;;;;6321268;28;20023;-83
2022/01/16 09:42:43;;;;;;;29.25;12.50;;;5.10;63.10;;;;;;6301973;28;20039;-84
2022/01/16 09:45:45;;;;;;;32.15;12.27;;;4.90;62.80;;;;;;6299489;28;20065;-80
2022/01/16 09:48:46;;;;;;;31.40;12.60;;;5.30;63.00;;;;;;6304150;28;20023;-82
2022/01/16 09:51:47;;;;;;;28.52;13.23;;;5.30;62.80;;;;;;6327480;28;20146;-83
2022/01/16 09:54:50;;;;;;;43.42;15.43;;;5.40;62.80;;;;;;6326762;28;20111;-84
2022/01/16 09:57:53;;;;;;;28.05;11.60;;;5.40;62.70;;;;;;6308504;28;20031;-74
2022/01/16 10:00:55;;;;;;;27.20;11.77;;;5.50;62.50;;;;;;6289607;28;20028;-73
2022/01/16 10:03:56;;;;;;;26.05;11.27;;;5.50;62.00;;;;;;6297396;28;20697;-74
2022/01/16 10:07:04;;;;;;;32.53;13.55;;;5.60;62.80;;;;;;6317460;28;20147;-74
2022/01/16 10:10:14;;;;;;;28.02;13.18;;;5.60;62.00;;;;;;6302827;28;20028;-74
2022/01/16 10:13:25;;;;;;;31.98;12.88;;;5.70;62.10;;;;;;6315644;28;20215;-74
2022/01/16 10:16:32;;;;;;;25.40;11.35;;;5.90;62.10;;;;;;6292165;28;20024;-73
2022/01/16 10:19:33;;;;;;;30.80;14.50;;;6.10;61.60;;;;;;6299435;28;20504;-73
2022/01/16 10:22:43;;;;;;;30.08;12.27;;;6.40;60.80;;;;;;6298915;28;20040;-73
2022/01/16 10:25:48;;;;;;;29.42;11.98;;;6.60;60.30;;;;;;6297756;28;20016;-74
2022/01/16 10:28:51;;;;;;;34.35;14.50;;;6.70;60.00;;;;;;6313275;28;20115;-74
2022/01/16 10:32:31;;;;;;;32.92;13.40;;;6.90;59.60;;;;;;6312401;28;20453;-73
2022/01/16 10:35:37;;;;;;;28.80;13.45;;;7.00;59.30;;;;;;6306654;28;20048;-73
2022/01/16 10:38:38;;;;;;;35.35;13.38;;;7.10;59.00;;;;;;6286981;28;20028;-73
2022/01/16 10:41:41;;;;;;;31.13;15.45;;;7.30;58.70;;;;;;6312229;28;20031;-75
2022/01/16 10:44:43;;;;;;;31.27;14.85;;;7.40;58.40;;;;;;6301420;28;20025;-73
2022/01/16 10:47:51;;;;;;;36.90;15.05;;;7.60;58.10;;;;;;6276839;28;20029;-74
2022/01/16 10:50:52;;;;;;;32.28;14.13;;;7.80;57.70;;;;;;6286567;28;20301;-74
2022/01/16 10:53:53;;;;;;;29.30;12.77;;;8.00;57.40;;;;;;6291658;28;20052;-75
2022/01/16 10:56:54;;;;;;;32.70;13.85;;;8.30;57.10;;;;;;6294820;28;20516;-74
2022/01/16 11:00:15;;;;;;;33.10;14.55;;;8.60;56.60;;;;;;6299381;28;20052;-74
2022/01/16 11:03:16;;;;;;;35.88;14.07;;;8.80;55.90;;;;;;6298938;28;20626;-73
2022/01/16 11:06:23;;;;;;;37.35;17.25;;;9.10;55.30;;;;;;6298542;28;20028;-73
2022/01/16 11:09:29;;;;;;;40.75;16.45;;;9.30;54.80;;;;;;6302828;28;20028;-73
2022/01/16 11:12:36;;;;;;;40.15;16.77;;;9.70;54.70;;;;;;6289651;28;20109;-73
2022/01/16 11:15:42;;;;;;;33.33;16.02;;;10.20;54.00;;;;;;6316947;28;20048;-73
2022/01/16 11:18:49;;;;;;;37.33;16.48;;;10.60;52.60;;;;;;6302983;28;20023;-74
2022/01/16 11:21:55;;;;;;;68.15;25.25;;;11.00;51.90;;;;;;6315921;28;20047;-72
2022/01/16 11:25:10;;;;;;;36.67;16.05;;;11.40;51.00;;;;;;6321042;28;20109;-73
2022/01/16 11:28:14;;;;;;;32.83;14.70;;;11.80;49.80;;;;;;6320656;28;20123;-73
2022/01/16 11:31:15;;;;;;;34.13;12.75;;;12.10;48.70;;;;;;6320727;28;20484;-73
2022/01/16 11:34:16;;;;;;;34.65;15.68;;;12.30;48.10;;;;;;6318959;28;20535;-73
2022/01/16 11:37:18;;;;;;;33.00;15.70;;;12.50;47.40;;;;;;6321380;28;20121;-74
2022/01/16 11:40:38;;;;;;;31.92;14.95;;;12.70;46.70;;;;;;6302104;28;20123;-75
2022/01/16 11:43:41;;;;;;;33.60;15.82;;;12.90;46.30;;;;;;6303172;28;20032;-74
2022/01/16 11:46:49;;;;;;;38.08;15.77;;;13.20;45.90;;;;;;6286517;28;20132;-73
2022/01/16 11:49:51;;;;;;;32.25;14.45;;;13.50;45.70;;;;;;6302734;28;20056;-72
2022/01/16 11:52:53;;;;;;;31.83;13.82;;;13.90;44.40;;;;;;6303030;28;20028;-73
2022/01/16 11:55:54;;;;;;;36.88;15.98;;;14.20;43.50;;;;;;6298260;28;20024;-72
2022/01/16 11:59:25;;;;;;;40.67;16.35;;;14.50;42.90;;;;;;6318965;28;20413;-73
2022/01/16 12:02:27;;;;;;;49.08;18.05;;;15.00;42.50;;;;;;6310262;28;20024;-73
2022/01/16 12:05:29;;;;;;;38.85;17.30;;;15.20;41.70;;;;;;6279969;28;20032;-74
2022/01/16 12:08:34;;;;;;;32.83;14.82;;;14.60;41.70;;;;;;6314960;28;20082;-75
2022/01/16 12:11:37;;;;;;;30.40;13.23;;;13.80;42.80;;;;;;6295369;28;20032;-75
2022/01/16 12:15:09;;;;;;;36.25;15.43;;;13.10;44.00;;;;;;6320628;28;20020;-73
2022/01/16 12:18:34;;;;;;;34.08;14.38;;;12.20;45.30;;;;;;6297247;28;20032;-74
2022/01/16 12:21:35;;;;;;;27.48;13.30;;;11.50;46.90;;;;;;6316364;28;20369;-73
2022/01/16 12:24:39;;;;;;;47.70;19.27;;;11.10;47.80;;;;;;6292784;28;20044;-73
2022/01/16 12:27:46;;;;;;;31.80;13.45;;;10.70;48.60;;;;;;6290623;28;20630;-74
2022/01/16 12:30:51;;;;;;;30.65;14.15;;;10.40;49.30;;;;;;6293012;28;20025;-73
2022/01/16 12:33:53;;;;;;;34.33;13.07;;;10.20;49.90;;;;;;6293675;28;20546;-73
2022/01/16 12:36:54;;;;;;;30.08;13.75;;;10.10;50.30;;;;;;6292311;28;20103;-72
2022/01/16 12:39:56;;;;;;;36.05;13.73;;;10.00;50.60;;;;;;6292889;28;20073;-73
2022/01/16 12:42:57;;;;;;;29.45;14.65;;;10.00;50.90;;;;;;6265051;28;20024;-75
2022/01/16 12:46:01;;;;;;;27.80;12.20;;;9.90;51.10;;;;;;6273871;28;20101;-73
2022/01/16 12:49:08;;;;;;;27.92;12.13;;;9.90;51.20;;;;;;6281046;28;20120;-73
2022/01/16 12:52:09;;;;;;;27.02;12.30;;;9.90;51.40;;;;;;6287391;28;20107;-72
2022/01/16 12:55:11;;;;;;;42.42;15.63;;;9.90;51.50;;;;;;6281431;28;20094;-73
2022/01/16 12:58:20;;;;;;;27.10;11.73;;;9.80;51.60;;;;;;6280661;28;20033;-74
2022/01/16 13:01:22;;;;;;;28.55;11.38;;;9.80;51.70;;;;;;6280882;28;20513;-74
2022/01/16 13:04:34;;;;;;;26.15;10.52;;;9.80;51.90;;;;;;6273554;28;20074;-74
2022/01/16 13:07:37;;;;;;;28.83;13.00;;;9.80;51.90;;;;;;6280677;28;20028;-74
2022/01/16 13:10:39;;;;;;;22.13;10.57;;;9.80;52.00;;;;;;6272249;28;20378;-74
2022/01/16 13:13:40;;;;;;;26.48;9.75;;;9.80;52.10;;;;;;6263235;28;20029;-73
2022/01/16 13:16:46;;;;;;;29.63;12.52;;;9.80;52.20;;;;;;6281180;28;20070;-74
2022/01/16 13:19:53;;;;;;;26.60;11.23;;;9.80;52.40;;;;;;6280815;28;20021;-74
2022/01/16 13:22:56;;;;;;;28.88;12.00;;;9.80;52.50;;;;;;6273512;28;20045;-75
2022/01/16 13:25:57;;;;;;;29.67;15.13;;;9.80;52.60;;;;;;6279399;28;20028;-75
2022/01/16 13:29:03;;;;;;;26.48;12.60;;;9.70;52.60;;;;;;6262403;28;20039;-73
2022/01/16 13:32:06;;;;;;;40.33;15.82;;;9.70;52.70;;;;;;6279968;28;20029;-75
2022/01/16 13:35:26;;;;;;;34.63;14.15;;;9.70;52.80;;;;;;6286656;28;20056;-73
2022/01/16 13:38:30;;;;;;;24.60;10.60;;;9.70;52.80;;;;;;6291333;28;20037;-74
2022/01/16 13:41:32;;;;;;;18.63;9.80;;;9.70;52.90;;;;;;6292349;28;20036;-73
2022/01/16 13:44:33;;;;;;;27.27;10.27;;;9.80;52.90;;;;;;6292372;28;20032;-73
2022/01/16 13:47:34;;;;;;;36.42;14.82;;;9.70;52.90;;;;;;6293174;28;20216;-73
2022/01/16 13:50:40;;;;;;;33.38;13.68;;;9.70;53.00;;;;;;6293006;28;20044;-75
2022/01/16 13:53:44;;;;;;;25.85;11.52;;;9.70;53.20;;;;;;6282071;28;20520;-74
2022/01/16 13:56:49;;;;;;;38.90;12.93;;;9.60;53.30;;;;;;6287275;28;20543;-75
2022/01/16 14:00:00;;;;;;;33.00;13.15;;;9.60;53.40;;;;;;6275942;28;20357;-74
2022/01/16 14:03:20;;;;;;;41.75;17.40;;;9.60;53.60;;;;;;6293828;28;20522;-75
2022/01/16 14:06:23;;;;;;;31.80;12.75;;;9.60;53.70;;;;;;6290558;28;20103;-75
2022/01/16 14:09:24;;;;;;;48.97;20.52;;;9.60;53.80;;;;;;6308415;28;20040;-74
2022/01/16 14:12:26;;;;;;;28.48;13.07;;;9.50;53.80;;;;;;6292104;28;20032;-73
2022/01/16 14:15:27;;;;;;;31.02;13.10;;;9.50;53.90;;;;;;6290490;28;20035;-74
2022/01/16 14:18:40;;;;;;;47.30;16.73;;;9.50;54.00;;;;;;6301447;28;20064;-74
2022/01/16 14:22:06;;;;;;;41.92;18.55;;;9.50;54.10;;;;;;6290351;28;20160;-74
2022/01/16 14:25:07;;;;;;;41.42;15.32;;;9.50;54.10;;;;;;6285391;28;20045;-74
2022/01/16 14:28:08;;;;;;;32.13;13.70;;;9.50;54.00;;;;;;6283909;28;20029;-73
2022/01/16 14:31:10;;;;;;;44.78;14.73;;;9.40;53.90;;;;;;6279464;28;20044;-74
2022/01/16 14:34:14;;;;;;;41.13;13.35;;;9.50;53.90;;;;;;6266576;28;20024;-74
2022/01/16 14:37:17;;;;;;;29.20;11.73;;;9.40;54.00;;;;;;6261322;28;20159;-74
2022/01/16 14:40:18;;;;;;;25.15;11.50;;;9.50;54.00;;;;;;6266984;28;20640;-74
2022/01/16 14:43:22;;;;;;;27.50;11.05;;;9.50;54.00;;;;;;6281489;28;20393;-74
2022/01/16 14:46:25;;;;;;;26.40;10.82;;;9.50;53.90;;;;;;6276966;28;20036;-75
2022/01/16 14:49:27;;;;;;;23.70;10.20;;;9.50;53.90;;;;;;6280142;28;20028;-74
2022/01/16 14:52:28;;;;;;;26.75;10.80;;;9.50;53.80;;;;;;6280719;28;20032;-74
2022/01/16 14:55:29;;;;;;;20.35;10.38;;;9.50;53.70;;;;;;6280937;28;20021;-74
2022/01/16 14:58:30;;;;;;;21.88;9.00;;;9.50;53.80;;;;;;6281211;28;20651;-74
2022/01/16 15:01:32;;;;;;;29.85;9.77;;;9.40;53.70;;;;;;6286079;28;20106;-75
2022/01/16 15:04:34;;;;;;;33.45;13.48;;;9.40;53.70;;;;;;6273827;28;20040;-76
2022/01/16 15:07:35;;;;;;;34.35;13.63;;;9.40;53.80;;;;;;6273319;28;20668;-74
2022/01/16 15:10:36;;;;;;;21.27;9.93;;;9.40;54.00;;;;;;6299239;28;20093;-75
2022/01/16 15:13:38;;;;;;;34.80;12.45;;;9.30;53.90;;;;;;6278646;28;20108;-73
2022/01/16 15:16:39;;;;;;;23.50;10.02;;;9.30;53.90;;;;;;6281735;28;20017;-74
2022/01/16 15:19:40;;;;;;;24.52;10.88;;;9.30;53.90;;;;;;6277121;28;20532;-74
2022/01/16 15:22:43;;;;;;;26.17;11.32;;;9.40;53.90;;;;;;6283467;28;20088;-74
2022/01/16 15:25:46;;;;;;;38.03;16.52;;;9.30;53.90;;;;;;6283364;28;20064;-74
2022/01/16 15:28:47;;;;;;;44.38;20.33;;;9.30;54.00;;;;;;6285196;28;20157;-74
2022/01/16 15:31:48;;;;;;;48.25;15.82;;;9.30;54.10;;;;;;6285589;28;20025;-74
2022/01/16 15:34:51;;;;;;;23.20;11.10;;;9.30;54.20;;;;;;6306258;28;20072;-74
2022/01/16 15:37:53;;;;;;;29.92;12.02;;;9.20;54.20;;;;;;6302355;28;20031;-74
2022/01/16 15:40:56;;;;;;;33.75;11.60;;;9.20;54.30;;;;;;6269713;28;20023;-73
2022/01/16 15:43:57;;;;;;;28.13;11.20;;;9.20;54.40;;;;;;6274141;28;20051;-74
2022/01/16 15:46:59;;;;;;;28.13;11.23;;;9.20;54.50;;;;;;6303765;28;20443;-75
2022/01/16 15:50:00;;;;;;;30.92;11.07;;;9.10;54.60;;;;;;6303911;28;20479;-75
2022/01/16 15:53:03;;;;;;;27.00;11.35;;;9.10;54.80;;;;;;6304192;28;20024;-75
2022/01/16 15:56:05;;;;;;;26.63;11.40;;;9.00;54.90;;;;;;6301612;28;20029;-75
2022/01/16 15:59:07;;;;;;;24.05;10.88;;;8.90;55.10;;;;;;6270064;28;20086;-74
2022/01/16 16:02:08;;;;;;;29.50;11.40;;;8.90;55.20;;;;;;6297208;28;20395;-76
2022/01/16 16:05:09;;;;;;;35.60;11.20;;;8.80;55.20;;;;;;6319600;28;20028;-75
2022/01/16 16:08:10;;;;;;;34.05;12.95;;;8.80;55.30;;;;;;6311371;28;20032;-76
2022/01/16 16:11:11;;;;;;;31.05;12.18;;;8.70;55.40;;;;;;6297258;28;20024;-75
2022/01/16 16:14:12;;;;;;;34.33;12.05;;;8.60;55.50;;;;;;6292434;28;20093;-76
2022/01/16 16:17:13;;;;;;;32.42;11.57;;;8.60;55.80;;;;;;6289668;28;20196;-75
2022/01/16 16:20:16;;;;;;;36.97;12.52;;;8.50;56.00;;;;;;6290069;28;20024;-74
2022/01/16 16:23:17;;;;;;;33.22;12.30;;;8.40;56.30;;;;;;6290177;28;20040;-74
2022/01/16 16:26:19;;;;;;;32.42;12.18;;;8.30;56.40;;;;;;6307053;28;20047;-74
2022/01/16 16:29:20;;;;;;;34.47;13.23;;;8.20;56.50;;;;;;6289393;28;20444;-75
2022/01/16 16:32:22;;;;;;;30.85;11.48;;;8.20;56.80;;;;;;6298173;28;20055;-76